createdAt,value
2022-12-28T00:01:19.025Z,3.45
2022-12-28T00:03:46.215Z,3.08
2022-12-28T00:06:13.381Z,3.90
2022-12-28T00:08:40.950Z,3.78
2022-12-28T00:11:20.583Z,3.25
2022-12-28T00:13:59.281Z,3.90
2022-12-28T00:16:29.073Z,3.92
2022-12-28T00:18:57.449Z,3.78
2022-12-28T00:21:24.597Z,3.33
2022-12-28T00:23:52.698Z,4.10
2022-12-28T00:26:19.666Z,4.10
2022-12-28T00:28:47.426Z,3.90
2022-12-28T00:31:15.066Z,3.40
2022-12-28T00:33:42.250Z,3.20
2022-12-28T00:36:12.354Z,4.47
2022-12-28T00:38:39.680Z,3.75
2022-12-28T00:41:07.189Z,3.50
2022-12-28T00:43:34.543Z,4.07
2022-12-28T00:46:01.646Z,3.80
2022-12-28T00:48:28.640Z,3.75
2022-12-28T00:51:03.316Z,3.75
2022-12-28T00:53:30.054Z,4.38
2022-12-28T00:56:05.217Z,4.07
2022-12-28T00:58:32.321Z,3.80
2022-12-28T01:00:59.637Z,3.83
2022-12-28T01:03:26.432Z,3.85
2022-12-28T01:05:53.217Z,3.90
2022-12-28T01:08:19.897Z,3.03
2022-12-28T01:10:46.595Z,3.40
2022-12-28T01:13:13.344Z,4.13
2022-12-28T01:15:40.371Z,4.50
2022-12-28T01:18:07.039Z,4.10
2022-12-28T01:20:33.744Z,4.32
2022-12-28T01:23:00.607Z,4.15
2022-12-28T01:25:27.424Z,3.40
2022-12-28T01:27:54.118Z,3.45
2022-12-28T01:30:20.926Z,3.78
2022-12-28T01:32:47.616Z,3.78
2022-12-28T01:35:14.390Z,3.60
2022-12-28T01:37:41.036Z,4.20
2022-12-28T01:40:13.592Z,3.60
2022-12-28T01:42:41.230Z,4.40
2022-12-28T01:45:19.761Z,3.60
2022-12-28T01:47:51.729Z,4.05
2022-12-28T01:50:24.758Z,4.05
2022-12-28T01:53:02.472Z,5.75
2022-12-28T01:55:32.959Z,3.60
2022-12-28T01:58:01.545Z,4.05
2022-12-28T02:00:28.788Z,3.50
2022-12-28T02:03:02.882Z,3.65
2022-12-28T02:05:34.500Z,3.75
2022-12-28T02:08:16.907Z,3.72
2022-12-28T02:10:45.991Z,3.67
2022-12-28T02:13:17.122Z,3.72
2022-12-28T02:15:45.015Z,3.20
2022-12-28T02:18:14.341Z,3.75
2022-12-28T02:20:47.141Z,3.40
2022-12-28T02:23:54.985Z,4.03
2022-12-28T02:26:56.317Z,3.85
2022-12-28T02:29:43.996Z,3.13
2022-12-28T02:32:34.747Z,3.97
2022-12-28T02:35:08.641Z,3.38
2022-12-28T02:37:46.722Z,3.50
2022-12-28T02:40:25.014Z,3.63
2022-12-28T02:42:54.283Z,3.55
2022-12-28T02:45:55.938Z,4.82
2022-12-28T02:48:49.535Z,4.70
2022-12-28T02:51:34.340Z,4.22
2022-12-28T02:54:32.712Z,3.70
2022-12-28T02:57:23.680Z,5.18
2022-12-28T03:00:05.157Z,4.60
2022-12-28T03:03:15.881Z,4.90
2022-12-28T03:06:32.102Z,5.65
2022-12-28T03:09:38.252Z,4.72
2022-12-28T03:12:04.855Z,5.80
2022-12-28T03:14:39.708Z,4.88
2022-12-28T03:17:27.701Z,5.00
2022-12-28T03:20:16.700Z,5.05
2022-12-28T03:23:02.829Z,5.32
2022-12-28T03:25:54.004Z,4.55
2022-12-28T03:28:49.108Z,4.38
2022-12-28T03:31:22.288Z,4.85
2022-12-28T03:34:06.540Z,4.03
2022-12-28T03:36:57.241Z,4.88
2022-12-28T03:40:12.409Z,5.65
2022-12-28T03:43:03.106Z,5.18
2022-12-28T03:45:47.817Z,4.78
2022-12-28T03:48:18.540Z,4.50
2022-12-28T03:50:49.144Z,3.72
2022-12-28T03:53:19.776Z,4.30
2022-12-28T03:55:48.010Z,4.32
2022-12-28T03:58:17.396Z,5.30
2022-12-28T04:00:44.155Z,4.38
2022-12-28T04:03:11.011Z,5.28
2022-12-28T04:05:37.816Z,4.68
2022-12-28T04:08:04.690Z,4.18
2022-12-28T04:10:31.380Z,5.53
2022-12-28T04:12:58.261Z,4.25
2022-12-28T04:15:29.952Z,4.55
2022-12-28T04:18:03.420Z,4.40
2022-12-28T04:20:30.564Z,4.50
2022-12-28T04:22:57.283Z,5.15
2022-12-28T04:25:24.503Z,4.28
2022-12-28T04:27:52.734Z,5.25
2022-12-28T04:30:51.695Z,5.55
2022-12-28T04:33:18.747Z,4.95
2022-12-28T04:35:47.848Z,4.88
2022-12-28T04:38:14.669Z,4.43
2022-12-28T04:40:41.358Z,4.25
2022-12-28T04:43:08.289Z,5.47
2022-12-28T04:45:35.045Z,4.40
2022-12-28T04:48:01.939Z,4.20
2022-12-28T04:50:28.761Z,4.10
2022-12-28T04:52:55.582Z,3.78
2022-12-28T04:55:32.525Z,4.93
2022-12-28T04:58:00.942Z,4.78
2022-12-28T05:00:27.763Z,4.25
2022-12-28T05:02:54.540Z,4.35
2022-12-28T05:05:21.317Z,4.15
2022-12-28T05:07:48.010Z,4.60
2022-12-28T05:10:14.750Z,4.47
2022-12-28T05:12:41.549Z,3.95
2022-12-28T05:15:08.956Z,4.18
2022-12-28T05:17:35.757Z,4.32
2022-12-28T05:20:03.207Z,3.90
2022-12-28T05:22:30.120Z,4.22
2022-12-28T05:24:57.184Z,4.10
2022-12-28T05:27:23.937Z,4.18
2022-12-28T05:29:50.601Z,4.05
2022-12-28T05:32:17.318Z,4.68
2022-12-28T05:34:44.955Z,4.57
2022-12-28T05:37:15.646Z,4.20
2022-12-28T05:39:45.328Z,4.10
2022-12-28T05:42:11.990Z,4.50
2022-12-28T05:44:38.672Z,4.30
2022-12-28T05:47:05.388Z,4.18
2022-12-28T05:49:32.131Z,4.05
2022-12-28T05:51:58.819Z,3.83
2022-12-28T05:54:25.508Z,4.00
2022-12-28T05:56:52.323Z,4.43
2022-12-28T05:59:19.010Z,4.18
2022-12-28T06:01:46.005Z,4.35
2022-12-28T06:04:20.198Z,4.00
2022-12-28T06:06:48.101Z,4.72
2022-12-28T06:09:15.551Z,4.18
2022-12-28T06:11:42.682Z,3.92
2022-12-28T06:14:09.522Z,4.80
2022-12-28T06:16:39.196Z,4.53
2022-12-28T06:19:08.931Z,4.80
2022-12-28T06:21:37.980Z,4.57
2022-12-28T06:24:06.366Z,4.75
2022-12-28T06:26:35.170Z,4.80
2022-12-28T06:29:02.140Z,4.78
2022-12-28T06:31:37.448Z,5.07
2022-12-28T06:34:05.980Z,4.82
2022-12-28T06:36:38.599Z,5.72
2022-12-28T06:41:33.865Z,4.78
2022-12-28T06:44:00.858Z,5.63
2022-12-28T06:46:29.840Z,5.20
2022-12-28T06:48:57.293Z,5.30
2022-12-28T06:51:29.187Z,5.60
2022-12-28T06:53:55.981Z,5.72
2022-12-28T06:56:25.396Z,5.65
2022-12-28T06:58:58.397Z,5.82
2022-12-28T07:01:32.202Z,5.65
2022-12-28T07:03:59.904Z,6.15
2022-12-28T07:06:28.512Z,6.18
2022-12-28T07:09:00.812Z,7.50
2022-12-28T07:11:28.986Z,6.07
2022-12-28T07:13:56.368Z,6.82
2022-12-28T07:16:24.635Z,6.30
2022-12-28T07:18:51.601Z,6.63
2022-12-28T07:21:22.624Z,6.70
2022-12-28T07:23:51.353Z,7.57
2022-12-28T07:26:20.685Z,7.47
2022-12-28T07:28:48.907Z,6.07
2022-12-28T07:31:21.130Z,6.10
2022-12-28T07:33:48.852Z,6.47
2022-12-28T07:36:19.626Z,6.45
2022-12-28T07:38:47.323Z,5.80
2022-12-28T07:41:16.643Z,6.43
2022-12-28T07:43:44.088Z,5.07
2022-12-28T07:46:16.434Z,5.85
2022-12-28T07:48:44.125Z,6.60
2022-12-28T07:51:17.492Z,5.72
2022-12-28T07:53:46.850Z,5.80
2022-12-28T07:56:14.731Z,5.82
2022-12-28T08:01:10.089Z,6.47
2022-12-28T08:03:37.764Z,6.60
2022-12-28T08:06:19.796Z,6.43
2022-12-28T08:08:49.004Z,6.10
2022-12-28T08:11:18.523Z,6.78
2022-12-28T08:13:47.176Z,5.63
2022-12-28T08:16:16.421Z,5.78
2022-12-28T08:18:43.151Z,4.95
2022-12-28T08:21:15.441Z,5.40
2022-12-28T08:23:42.146Z,5.13
2022-12-28T08:26:14.216Z,4.97
2022-12-28T08:28:42.007Z,5.20
2022-12-28T08:31:13.447Z,5.38
2022-12-28T08:33:40.104Z,6.63
2022-12-28T08:36:07.944Z,5.10
2022-12-28T08:38:36.397Z,5.47
2022-12-28T08:41:05.662Z,5.47
2022-12-28T08:43:33.364Z,5.20
2022-12-28T08:46:07.959Z,6.20
2022-12-28T08:48:35.383Z,5.65
2022-12-28T08:51:05.845Z,6.00
2022-12-28T08:53:32.967Z,6.50
2022-12-28T08:56:17.062Z,5.60
2022-12-28T08:58:44.894Z,5.47
2022-12-28T09:01:14.648Z,4.85
2022-12-28T09:03:43.815Z,5.72
2022-12-28T09:06:13.438Z,5.07
2022-12-28T09:08:42.548Z,4.30
2022-12-28T09:11:13.510Z,5.10
2022-12-28T09:13:40.563Z,4.93
2022-12-28T09:16:12.588Z,4.57
2022-12-28T09:18:40.563Z,4.15
2022-12-28T09:21:09.805Z,4.55
2022-12-28T09:23:37.303Z,4.28
2022-12-28T09:26:12.903Z,4.25
2022-12-28T09:28:43.815Z,4.78
2022-12-28T09:31:10.459Z,4.78
2022-12-28T09:36:44.174Z,4.57
2022-12-28T09:39:13.760Z,4.70
2022-12-28T09:42:04.628Z,4.97
2022-12-28T09:44:53.373Z,5.05
2022-12-28T09:47:29.279Z,5.85
2022-12-28T09:50:17.267Z,5.15
2022-12-28T09:53:03.274Z,5.43
2022-12-28T09:55:31.266Z,5.03
2022-12-28T09:57:59.595Z,5.07
2022-12-28T10:00:42.726Z,5.03
2022-12-28T10:03:35.241Z,5.03
2022-12-28T10:06:03.461Z,5.35
2022-12-28T10:08:30.935Z,5.32
2022-12-28T10:11:01.755Z,4.82
2022-12-28T10:13:54.221Z,5.10
2022-12-28T10:16:23.473Z,4.43
2022-12-28T10:18:50.698Z,4.93
2022-12-28T10:21:19.908Z,4.45
2022-12-28T10:24:29.705Z,5.55
2022-12-28T10:26:44.163Z,4.38
2022-12-28T10:29:19.807Z,4.78
2022-12-28T10:31:58.528Z,4.10
2022-12-28T10:34:25.396Z,4.28
2022-12-28T10:36:54.201Z,4.50
2022-12-28T10:39:25.400Z,4.75
2022-12-28T10:41:53.269Z,4.03
2022-12-28T10:44:41.351Z,4.15
2022-12-28T10:47:35.947Z,4.40
2022-12-28T10:52:58.293Z,3.97
2022-12-28T10:55:31.650Z,3.92
2022-12-28T10:58:29.655Z,3.38
2022-12-28T11:01:05.031Z,3.63
2022-12-28T11:03:35.470Z,3.60
2022-12-28T11:06:27.386Z,3.90
2022-12-28T11:09:02.373Z,3.63
2022-12-28T11:11:29.245Z,3.33
2022-12-28T11:14:10.069Z,3.30
2022-12-28T11:16:37.822Z,3.10
2022-12-28T11:19:04.897Z,3.03
2022-12-28T11:21:33.512Z,3.15
2022-12-28T11:24:00.508Z,3.88
2022-12-28T11:26:28.832Z,3.00
2022-12-28T11:28:55.899Z,3.10
2022-12-28T11:31:34.839Z,2.90
2022-12-28T11:34:05.129Z,2.85
2022-12-28T11:36:38.402Z,2.80
2022-12-28T11:39:32.251Z,2.45
2022-12-28T11:42:37.048Z,2.15
2022-12-28T11:44:50.876Z,2.30
2022-12-28T11:47:28.663Z,2.40
2022-12-28T11:49:55.512Z,2.60
2022-12-28T11:52:27.273Z,2.58
2022-12-28T11:55:01.334Z,2.80
2022-12-28T11:57:44.631Z,3.10
2022-12-28T12:00:22.189Z,2.63
2022-12-28T12:02:54.092Z,2.85
2022-12-28T12:05:38.960Z,2.92
2022-12-28T12:08:14.533Z,2.78
2022-12-28T12:10:45.319Z,3.00
2022-12-28T12:13:27.312Z,2.63
2022-12-28T12:16:05.450Z,3.00
2022-12-28T12:18:43.635Z,2.75
2022-12-28T12:21:20.642Z,3.08
2022-12-28T12:23:54.096Z,2.38
2022-12-28T12:26:40.604Z,2.70
2022-12-28T12:29:36.478Z,2.85
2022-12-28T12:32:07.661Z,2.78
2022-12-28T12:34:57.694Z,2.75
2022-12-28T12:37:49.077Z,2.72
2022-12-28T12:40:56.347Z,2.60
2022-12-28T12:43:44.617Z,2.30
2022-12-28T12:46:36.097Z,2.97
2022-12-28T12:49:39.447Z,2.78
2022-12-28T12:55:42.702Z,2.35
2022-12-28T12:58:20.314Z,2.92
2022-12-28T13:00:59.215Z,2.47
2022-12-28T13:03:49.927Z,2.38
2022-12-28T13:06:29.554Z,2.38
2022-12-28T13:09:05.017Z,2.58
2022-12-28T13:11:37.359Z,2.03
2022-12-28T13:14:04.541Z,1.98
2022-12-28T13:16:32.565Z,1.77
2022-12-28T13:19:01.168Z,2.13
2022-12-28T13:21:44.590Z,2.33
2022-12-28T13:24:28.161Z,2.25
2022-12-28T13:26:56.401Z,1.90
2022-12-28T13:29:26.714Z,1.88
2022-12-28T13:31:53.467Z,2.00
2022-12-28T13:34:25.977Z,1.90
2022-12-28T13:36:58.467Z,2.25
2022-12-28T13:41:58.121Z,2.70
2022-12-28T13:44:27.611Z,2.13
2022-12-28T13:47:12.798Z,1.70
2022-12-28T13:50:05.798Z,1.85
2022-12-28T13:55:14.155Z,1.98
2022-12-28T13:57:48.255Z,2.40
2022-12-28T14:00:21.968Z,2.20
2022-12-28T14:02:51.649Z,2.50
2022-12-28T14:05:27.211Z,1.80
2022-12-28T14:07:57.450Z,2.40
2022-12-28T14:10:24.723Z,2.63
2022-12-28T14:12:52.586Z,2.05
2022-12-28T14:15:19.957Z,2.20
2022-12-28T14:17:50.000Z,2.92
2022-12-28T14:20:17.693Z,2.78
2022-12-28T14:22:44.769Z,2.60
2022-12-28T14:25:20.203Z,2.78
2022-12-28T14:27:57.541Z,3.08
2022-12-28T14:30:28.421Z,3.00
2022-12-28T14:32:55.975Z,3.17
2022-12-28T14:35:25.605Z,3.22
2022-12-28T14:38:00.814Z,3.35
2022-12-28T14:40:36.337Z,3.55
2022-12-28T14:43:41.732Z,2.97
2022-12-28T14:46:28.929Z,3.88
2022-12-28T14:48:55.729Z,3.33
2022-12-28T14:51:28.363Z,3.08
2022-12-28T14:57:15.000Z,3.60
2022-12-28T14:59:45.256Z,2.97
2022-12-28T15:02:33.647Z,3.30
2022-12-28T15:05:01.971Z,4.03
2022-12-28T15:07:31.410Z,3.15
2022-12-28T15:09:58.156Z,3.40
2022-12-28T15:12:24.896Z,4.00
2022-12-28T15:14:52.084Z,3.42
2022-12-28T15:17:18.840Z,3.00
2022-12-28T15:19:46.087Z,4.65
2022-12-28T15:22:13.000Z,3.72
2022-12-28T15:24:41.619Z,3.38
2022-12-28T15:27:08.528Z,3.95
2022-12-28T15:32:22.156Z,3.72
2022-12-28T15:34:48.866Z,4.05
2022-12-28T15:37:15.692Z,3.97
2022-12-28T15:39:42.509Z,3.17
2022-12-28T15:42:09.260Z,3.10
2022-12-28T15:44:36.133Z,2.90
2022-12-28T15:47:02.892Z,2.88
2022-12-28T15:49:29.615Z,2.90
2022-12-28T15:51:56.268Z,2.70
2022-12-28T15:54:22.941Z,2.60
2022-12-28T15:56:54.027Z,2.15
2022-12-28T15:59:20.696Z,3.47
2022-12-28T16:01:48.333Z,3.00
2022-12-28T16:04:15.445Z,2.13
2022-12-28T16:06:44.510Z,2.65
2022-12-28T16:09:13.735Z,2.42
2022-12-28T16:11:41.430Z,2.55
2022-12-28T16:14:14.172Z,2.50
2022-12-28T16:16:42.633Z,2.30
2022-12-28T16:19:13.493Z,2.15
2022-12-28T16:21:40.751Z,2.53
2022-12-28T16:24:07.750Z,2.47
2022-12-28T16:26:34.448Z,2.30
2022-12-28T16:29:02.200Z,2.55
2022-12-28T16:31:34.630Z,2.55
2022-12-28T16:34:04.529Z,2.25
2022-12-28T16:36:31.509Z,1.95
2022-12-28T16:38:58.522Z,2.10
2022-12-28T16:41:29.929Z,2.47
2022-12-28T16:44:04.590Z,2.20
2022-12-28T16:46:31.327Z,2.20
2022-12-28T16:49:01.844Z,2.15
2022-12-28T16:51:29.579Z,2.00
2022-12-28T16:53:56.639Z,2.30
2022-12-28T16:56:23.562Z,3.03
2022-12-28T16:58:50.450Z,1.95
2022-12-28T17:01:17.492Z,2.10
2022-12-28T17:03:44.283Z,2.30
2022-12-28T17:06:10.962Z,2.50
2022-12-28T17:08:37.787Z,2.28
2022-12-28T17:11:09.250Z,2.38
2022-12-28T17:13:37.558Z,2.60
2022-12-28T17:16:05.858Z,2.60
2022-12-28T17:18:32.885Z,2.40
2022-12-28T17:21:04.909Z,2.72
2022-12-28T17:23:33.744Z,2.65
2022-12-28T17:26:00.447Z,2.40
2022-12-28T17:28:27.214Z,2.38
2022-12-28T17:31:10.283Z,2.72
2022-12-28T17:33:40.058Z,3.17
2022-12-28T17:36:07.781Z,2.85
2022-12-28T17:38:34.482Z,2.95
2022-12-28T17:41:14.955Z,2.88
2022-12-28T17:43:49.029Z,2.97
2022-12-28T17:46:15.828Z,2.80
2022-12-28T17:48:42.847Z,2.90
2022-12-28T17:51:11.521Z,3.10
2022-12-28T17:53:39.488Z,3.15
2022-12-28T17:56:09.024Z,3.10
2022-12-28T17:58:35.762Z,3.35
2022-12-28T18:01:02.708Z,2.60
2022-12-28T18:03:33.706Z,2.75
2022-12-28T18:06:01.626Z,3.28
2022-12-28T18:08:29.033Z,3.08
2022-12-28T18:10:56.131Z,3.33
2022-12-28T18:13:23.645Z,2.70
2022-12-28T18:15:50.651Z,3.65
2022-12-28T18:18:18.348Z,3.28
2022-12-28T18:20:45.300Z,3.35
2022-12-28T18:23:12.317Z,2.88
2022-12-28T18:25:39.197Z,3.00
2022-12-28T18:28:05.942Z,3.70
2022-12-28T18:30:32.725Z,2.70
2022-12-28T18:32:59.522Z,3.33
2022-12-28T18:35:26.841Z,3.17
2022-12-28T18:37:54.017Z,2.97
2022-12-28T18:40:20.730Z,3.42
2022-12-28T18:42:47.590Z,2.95
2022-12-28T18:45:14.575Z,3.33
2022-12-28T18:47:41.720Z,2.50
2022-12-28T18:50:09.076Z,3.22
2022-12-28T18:52:36.078Z,3.10
2022-12-28T18:55:03.745Z,3.33
2022-12-28T18:57:30.591Z,3.95
2022-12-28T18:59:57.345Z,3.08
2022-12-28T19:02:24.197Z,3.28
2022-12-28T19:04:54.296Z,3.15
2022-12-28T19:07:21.120Z,2.95
2022-12-28T19:10:12.642Z,3.15
2022-12-28T19:12:42.004Z,3.00
2022-12-28T19:15:10.431Z,3.25
2022-12-28T19:17:37.147Z,3.17
2022-12-28T19:20:04.570Z,3.35
2022-12-28T19:22:31.533Z,3.08
2022-12-28T19:24:58.168Z,3.47
2022-12-28T19:27:24.846Z,3.97
2022-12-28T19:29:51.519Z,3.75
2022-12-28T19:32:18.145Z,3.17
2022-12-28T19:34:44.834Z,3.47
2022-12-28T19:37:11.561Z,3.38
2022-12-28T19:39:38.212Z,3.28
2022-12-28T19:42:04.982Z,3.15
2022-12-28T19:44:31.633Z,3.10
2022-12-28T19:46:58.719Z,3.17
2022-12-28T19:49:25.617Z,3.10
2022-12-28T19:51:52.356Z,3.45
2022-12-28T19:54:19.111Z,2.72
2022-12-28T19:56:45.781Z,3.92
2022-12-28T19:59:12.493Z,2.78
2022-12-28T20:01:39.470Z,3.20
2022-12-28T20:04:13.400Z,2.88
2022-12-28T20:06:42.252Z,3.53
2022-12-28T20:09:09.071Z,2.88
2022-12-28T20:11:38.157Z,3.25
2022-12-28T20:14:05.328Z,3.13
2022-12-28T20:16:34.303Z,3.30
2022-12-28T20:19:01.661Z,3.03
2022-12-28T20:21:28.484Z,2.95
2022-12-28T20:23:55.191Z,2.92
2022-12-28T20:26:24.472Z,2.95
2022-12-28T20:28:51.287Z,3.47
2022-12-28T20:31:18.321Z,2.88
2022-12-28T20:33:46.136Z,3.50
2022-12-28T20:36:14.123Z,3.35
2022-12-28T20:38:41.054Z,3.55
2022-12-28T20:41:42.963Z,3.63
2022-12-28T20:44:14.031Z,3.60
2022-12-28T20:46:46.180Z,3.65
2022-12-28T20:49:13.284Z,3.97
2022-12-28T20:51:42.263Z,3.35
2022-12-28T20:54:10.608Z,3.85
2022-12-28T20:56:38.508Z,4.00
2022-12-28T20:59:05.797Z,3.85
2022-12-28T21:01:32.626Z,3.40
2022-12-28T21:03:59.499Z,3.47
2022-12-28T21:06:26.262Z,3.67
2022-12-28T21:08:53.096Z,3.47
2022-12-28T21:11:19.786Z,3.70
2022-12-28T21:13:46.545Z,3.42
2022-12-28T21:16:17.526Z,4.75
2022-12-28T21:18:44.541Z,3.83
2022-12-28T21:21:22.074Z,4.13
2022-12-28T21:23:49.511Z,3.78
2022-12-28T21:26:18.162Z,3.30
2022-12-28T21:28:45.566Z,4.28
2022-12-28T21:31:13.191Z,3.40
2022-12-28T21:33:40.708Z,4.68
2022-12-28T21:36:13.005Z,3.70
2022-12-28T21:38:41.045Z,4.10
2022-12-28T21:41:38.028Z,4.45
2022-12-28T21:44:06.751Z,3.90
2022-12-28T21:46:34.342Z,4.03
2022-12-28T21:49:03.352Z,3.80
2022-12-28T21:51:35.083Z,4.13
2022-12-28T21:54:08.056Z,3.95
2022-12-28T21:56:35.874Z,3.65
2022-12-28T21:59:03.389Z,3.50
2022-12-28T22:01:48.964Z,3.50
2022-12-28T22:04:40.296Z,4.50
2022-12-28T22:07:09.218Z,3.45
2022-12-28T22:09:55.217Z,3.75
2022-12-28T22:12:35.072Z,3.88
2022-12-28T22:15:27.173Z,3.67
2022-12-28T22:17:59.178Z,3.17
2022-12-28T22:20:26.908Z,3.20
2022-12-28T22:22:56.865Z,4.25
2022-12-28T22:25:25.123Z,3.28
2022-12-28T22:27:52.085Z,3.28
2022-12-28T22:30:18.830Z,3.83
2022-12-28T22:32:45.596Z,3.50
2022-12-28T22:35:12.463Z,3.30
2022-12-28T22:37:39.323Z,3.53
2022-12-28T22:40:06.521Z,3.45
2022-12-28T22:42:33.308Z,3.30
2022-12-28T22:44:59.926Z,3.53
2022-12-28T22:47:28.127Z,3.45
2022-12-28T22:49:55.111Z,3.25
2022-12-28T22:52:21.863Z,3.63
2022-12-28T22:54:48.558Z,2.92
2022-12-28T22:57:15.180Z,3.85
2022-12-28T22:59:41.877Z,3.58
2022-12-28T23:02:08.748Z,3.47
2022-12-28T23:04:35.650Z,3.75
2022-12-28T23:07:04.230Z,3.38
2022-12-28T23:09:31.996Z,3.60
2022-12-28T23:11:58.790Z,3.35
2022-12-28T23:14:44.756Z,3.92
2022-12-28T23:17:13.619Z,3.65
2022-12-28T23:20:00.906Z,3.67
2022-12-28T23:22:48.428Z,3.45
2022-12-28T23:25:39.692Z,4.25
2022-12-28T23:28:10.454Z,3.08
2022-12-28T23:30:44.030Z,3.40
2022-12-28T23:33:11.016Z,3.72
2022-12-28T23:35:37.985Z,4.00
2022-12-28T23:38:05.754Z,4.32
2022-12-28T23:40:32.484Z,3.80
2022-12-28T23:42:59.163Z,3.25
2022-12-28T23:45:25.898Z,3.42
2022-12-28T23:47:53.747Z,3.67
2022-12-28T23:50:20.594Z,3.65
2022-12-28T23:52:47.442Z,3.20
2022-12-28T23:55:14.696Z,3.30
2022-12-28T23:57:41.743Z,3.58
